Hill Air Force Base
KHIF : rendu visible

Aérodrome :











RETROUVEZ-NOUS SUR...

 
LOGIN :

S'inscrire | Disclaimer

   EN    FR    IT 

 









Légende :    VFR   VFR Marginal   IFR   IFR Intensif   IFR Très Intensif
Visi : 
Plafond : 
>= 8 km
>= 3000ft
5 à 8 km
1000 à 3000 ft
1500m à 5 km
500 à 1000 ft
800 à 1500m
200 à 500 ft
< 800m
< 200 ft
Symboles :   Orages  Brouillard  Fortes neiges  Fortes précipitations  Vent > 20 kt






- Altitude de l'aérodrome : 4789 ft


KHIF - Hill Air Force Base

DERNIER METAR :
  • 082158Z AUTO 02007KT 10SM CLR 28/01 A3001 RMK AO2 SLP106 T02800007

METARs EXPIRÉS :
  • 082058Z 34008KT 10SM CLR 28/01 A3003 RMK AO2A SLP110 T02760011 57009
  • 081958Z AUTO 30007KT 10SM CLR 27/04 A3004 RMK AO2 SLP114 T02670044

TAF TAF KHIF
Valide du 08 à 21h jusqu'au 10 à 03h UTC


082102Z 0821/1003 32009KT 9999 SKC QNH2996INS
BECMG 0905/0906 07012G18KT 9999 SKC QNH2997INS
BECMG 0918/0919 22009KT 9999 SKC QNH2998INS TX29/0823Z TN16/0912Z
FIR KZLC / Amérique du Nord



MET'MAP, la Météo Aéronautique d'un coup d'oeil ! - Copyright ORBIFLY Décembre 2007 - Disclaimer

ORBIFLY MET'MAP TEAM :

Programmation & Développement : Alexandra Zaïnal
Sur une idée originale de : Baudouin d'Aumeries
Assistance à la programmation : Marc-Olivier Méhu
Soutien technique & logistique : Manuel Goepfert

Contact : metmap@orbifly.com




SOURCES & CREDITS :

   NOAA       Earth
Advisory